No particular awareness of the weather is required.    There are no Weather-warnings


Meteo18 Weather Cam more information Meteo18 Weather Cam


Thunder radar more information blitzortung!


Rain radar more information rain snow radar


Visit our other weather sites:

Template documentation
and downloads

And another site



Weather Underground History page Text

Daily Summary for November 9, 2017 Units:  English    Metric   Both
« Previous Day
Next Day »
Daily Weekly Monthly Yearly Custom
  High: Low: Average:
Temperature: TemperatureC °F 4.2 °F 6.2 °F
Dew Point: DewpointC °F 3.3 °F 4.4 °F
Humidity: Humidity % 78 % 88 %
Wind Speed: WindSpeedKMH mph 0.0 mph 0.9 mph
Wind Gust: WindSpeedGustKMH mph - -
Wind:- - SSW
Pressure: PressurehPa in 1022.9 in -
Precipitation: 0.0 in    
Historical Graphs
 
 
Tabular Data for November 9, 2017
Time Temperature Dew Point Pressure Wind Wind Speed Wind Gust Humidity Rainfall Rate (Hourly)
TemperatureC °F DewpointC °F PressurehPa in Calm     Humidity % HourlyPrecipMM in
00:02 5.4 °F 4.5 °F 1022.9 in Calm   1.6 mph 94 % 0.0 in
00:07 5.3 °F 4.4 °F 1023.2 in NE 1.6 mph 3.2 mph 94 % 0.0 in
00:12 5.3 °F 4.6 °F 1023.2 in Calm   4.8 mph 95 % 0.0 in
00:17 5.3 °F 4.6 °F 1022.9 in Calm   4.8 mph 95 % 0.0 in
00:22 5.3 °F 4.6 °F 1022.9 in North 1.6 mph 6.4 mph 95 % 0.0 in
00:32 5.3 °F 4.6 °F 1022.9 in Calm   6.4 mph 95 % 0.0 in
00:42 5.2 °F 4.5 °F 1022.9 in Calm   1.6 mph 95 % 0.0 in
00:47 5.2 °F 4.5 °F 1022.9 in Calm   1.6 mph 95 % 0.0 in
00:52 5.2 °F 4.5 °F 1023.2 in Calm   1.6 mph 95 % 0.0 in
01:02 5.2 °F 4.5 °F 1023.2 in Calm   4.8 mph 95 % 0.0 in
01:07 5.2 °F 4.5 °F 1023.2 in North 1.6 mph 4.8 mph 95 % 0.0 in
01:12 5.2 °F 4.5 °F 1023.2 in Calm   4.8 mph 95 % 0.0 in
01:17 5.2 °F 4.5 °F 1023.2 in Calm   3.2 mph 95 % 0.0 in
01:22 5.1 °F 4.4 °F 1023.2 in Calm   3.2 mph 95 % 0.0 in
01:27 5.1 °F 4.4 °F 1023.2 in Calm   3.2 mph 95 % 0.0 in
01:32 5.1 °F 4.4 °F 1023.2 in Calm   1.6 mph 95 % 0.0 in
01:37 5.0 °F 4.3 °F 1023.2 in Calm   1.6 mph 95 % 0.0 in
01:42 5.0 °F 4.3 °F 1023.2 in Calm   1.6 mph 95 % 0.0 in
01:47 4.9 °F 4.2 °F 1023.2 in Calm   1.6 mph 95 % 0.0 in
01:52 4.9 °F 4.2 °F 1023.2 in Calm   1.6 mph 95 % 0.0 in
01:57 4.9 °F 4.2 °F 1023.2 in Calm   1.6 mph 95 % 0.0 in
02:02 4.9 °F 4.2 °F 1023.2 in Calm   1.6 mph 95 % 0.0 in
02:07 4.8 °F 4.1 °F 1023.2 in Calm   1.6 mph 95 % 0.0 in
02:12 4.8 °F 4.1 °F 1023.2 in North 1.6 mph 3.2 mph 95 % 0.0 in
02:17 4.8 °F 4.1 °F 1023.2 in NW 3.2 mph 3.2 mph 95 % 0.0 in
02:22 4.8 °F 4.1 °F 1023.2 in NW 1.6 mph 3.2 mph 95 % 0.0 in
02:27 4.8 °F 4.1 °F 1023.6 in Calm   3.2 mph 95 % 0.0 in
02:32 4.8 °F 3.9 °F 1023.6 in Calm   3.2 mph 94 % 0.0 in
02:37 4.7 °F 3.8 °F 1023.6 in Calm   3.2 mph 94 % 0.0 in
02:42 4.7 °F 3.8 °F 1023.6 in Calm   3.2 mph 94 % 0.0 in
02:47 4.8 °F 3.9 °F 1023.6 in Calm   3.2 mph 94 % 0.0 in
02:52 4.8 °F 3.9 °F 1023.6 in Calm   1.6 mph 94 % 0.0 in
02:57 4.8 °F 3.9 °F 1023.6 in Calm   1.6 mph 94 % 0.0 in
03:02 4.8 °F 3.9 °F 1023.6 in Calm   1.6 mph 94 % 0.0 in
03:07 4.2 °F 3.3 °F 1023.2 in Calm   1.6 mph 94 % 0.0 in
03:12 4.2 °F 3.3 °F 1023.2 in Calm   1.6 mph 94 % 0.0 in
03:17 4.2 °F 3.3 °F 1023.2 in Calm   1.6 mph 94 % 0.0 in
08:57 4.7 °F 3.4 °F 1026.3 in NW 1.6 mph -1607.4 mph 91 % 0 in
09:02 4.7 °F 3.4 °F 1026.3 in NNE 1.6 mph 6.4 mph 91 % 0.0 in
09:12 4.8 °F 3.5 °F 1026.6 in NNW 3.2 mph 6.4 mph 91 % 0.0 in
09:17 4.8 °F 3.5 °F 1026.6 in Calm   8.0 mph 91 % 0.0 in
09:22 4.8 °F 3.5 °F 1026.6 in Calm   8.0 mph 91 % 0.0 in
09:32 4.9 °F 3.6 °F 1026.6 in Calm   4.8 mph 91 % 0.0 in
09:37 4.9 °F 3.6 °F 1026.6 in NE 6.4 mph 6.4 mph 91 % 0.0 in
09:42 5.0 °F 3.5 °F 1026.6 in Calm   8.0 mph 90 % 0.0 in
09:47 5.0 °F 3.5 °F 1026.6 in NNE 6.4 mph 8.0 mph 90 % 0.0 in
09:52 5.1 °F 3.6 °F 1026.6 in NNE 3.2 mph 9.7 mph 90 % 0.0 in
09:57 5.1 °F 3.6 °F 1026.6 in NNE 1.6 mph 9.7 mph 90 % 0.0 in
10:07 5.1 °F 3.4 °F 1027.0 in NNE 3.2 mph 6.4 mph 89 % 0.0 in
10:12 5.1 °F 3.4 °F 1026.6 in North 3.2 mph 6.4 mph 89 % 0.0 in
10:17 5.2 °F 3.5 °F 1026.6 in NNW 3.2 mph 8.0 mph 89 % 0.0 in
10:22 5.2 °F 3.5 °F 1027.0 in NNW 3.2 mph 8.0 mph 89 % 0.0 in
10:32 5.3 °F 3.5 °F 1027.0 in NE 3.2 mph 8.0 mph 88 % 0.0 in
10:42 5.3 °F 3.5 °F 1026.6 in ENE 3.2 mph 4.8 mph 88 % 0.0 in
10:47 5.4 °F 3.6 °F 1026.6 in NNE 3.2 mph 4.8 mph 88 % 0.0 in
10:57 5.5 °F 3.7 °F 1026.6 in NE 1.6 mph 4.8 mph 88 % 0.0 in
11:02 5.5 °F 3.7 °F 1027.0 in Calm   4.8 mph 88 % 0.0 in
11:12 5.7 °F 3.9 °F 1027.0 in Calm   3.2 mph 88 % 0.0 in
11:17 5.7 °F 3.7 °F 1027.0 in Calm   3.2 mph 87 % 0.0 in
11:22 5.8 °F 3.8 °F 1027.0 in Calm   1.6 mph 87 % 0.0 in
11:27 5.9 °F 3.9 °F 1027.0 in Calm   1.6 mph 87 % 0.0 in
11:32 5.9 °F 3.7 °F 1027.0 in Calm   1.6 mph 86 % 0.0 in
11:37 6.0 °F 3.8 °F 1027.0 in Calm   1.6 mph 86 % 0.0 in
11:42 6.1 °F 3.9 °F 1027.0 in Calm   1.6 mph 86 % 0.0 in
11:47 6.2 °F 4.0 °F 1027.0 in Calm   1.6 mph 86 % 0.0 in
11:52 6.2 °F 3.9 °F 1027.0 in Calm   1.6 mph 85 % 0.0 in
11:57 6.1 °F 3.8 °F 1027.0 in Calm   3.2 mph 85 % 0.0 in
12:02 6.2 °F 4.0 °F 1027.0 in Calm   3.2 mph 86 % 0.0 in
12:07 6.2 °F 3.9 °F 1027.0 in Calm   3.2 mph 85 % 0.0 in
12:12 6.3 °F 4.0 °F 1027.0 in Calm   3.2 mph 85 % 0.0 in
12:17 6.5 °F 4.2 °F 1027.0 in Calm   1.6 mph 85 % 0.0 in
12:22 6.5 °F 4.0 °F 1027.0 in Calm   1.6 mph 84 % 0.0 in
12:32 6.8 °F 4.1 °F 1026.6 in NNW 1.6 mph 1.6 mph 83 % 0.0 in
12:42 6.8 °F 4.1 °F 1026.6 in Calm   3.2 mph 83 % 0.0 in
12:47 6.7 °F 4.0 °F 1026.6 in NE 1.6 mph 3.2 mph 83 % 0.0 in
12:52 6.8 °F 4.1 °F 1026.6 in NNE 1.6 mph 3.2 mph 83 % 0.0 in
12:57 6.8 °F 4.1 °F 1026.6 in Calm   3.2 mph 83 % 0.0 in
13:02 6.8 °F 4.1 °F 1026.6 in Calm   3.2 mph 83 % 0.0 in
13:07 6.9 °F 4.2 °F 1026.6 in Calm   3.2 mph 83 % 0.0 in
13:12 7.0 °F 4.3 °F 1026.6 in Calm   3.2 mph 83 % 0.0 in
13:17 7.1 °F 4.4 °F 1026.6 in Calm   1.6 mph 83 % 0.0 in
13:22 7.1 °F 4.2 °F 1026.3 in Calm   1.6 mph 82 % 0.0 in
13:27 7.1 °F 4.2 °F 1026.3 in Calm   1.6 mph 82 % 0.0 in
13:32 7.0 °F 4.3 °F 1026.3 in Calm   1.6 mph 83 % 0.0 in
13:37 7.1 °F 4.2 °F 1026.3 in Calm   1.6 mph 82 % 0.0 in
13:42 7.1 °F 4.2 °F 1026.3 in Calm     82 % 0.0 in
13:47 7.1 °F 4.4 °F 1026.3 in Calm     83 % 0.0 in
13:52 7.0 °F 4.1 °F 1026.3 in Calm   3.2 mph 82 % 0.0 in
13:57 7.0 °F 4.3 °F 1026.3 in Calm   3.2 mph 83 % 0.0 in
14:02 7.1 °F 4.4 °F 1026.3 in Calm   3.2 mph 83 % 0.0 in
14:07 7.1 °F 4.4 °F 1026.6 in Calm   3.2 mph 83 % 0.0 in
14:12 7.1 °F 4.6 °F 1026.6 in NNE 1.6 mph 3.2 mph 84 % 0.0 in
14:17 7.1 °F 4.6 °F 1026.3 in Calm   3.2 mph 84 % 0.0 in
14:22 7.2 °F 4.7 °F 1026.3 in Calm   1.6 mph 84 % 0.0 in
14:27 7.2 °F 4.7 °F 1026.6 in Calm   1.6 mph 84 % 0.0 in
14:32 7.3 °F 4.8 °F 1026.3 in Calm   1.6 mph 84 % 0.0 in
14:37 7.4 °F 4.9 °F 1026.6 in Calm   3.2 mph 84 % 0.0 in
14:42 7.4 °F 4.7 °F 1026.3 in NNW 3.2 mph 3.2 mph 83 % 0.0 in
14:47 7.4 °F 4.7 °F 1026.3 in NW 1.6 mph 4.8 mph 83 % 0.0 in
14:52 7.4 °F 4.7 °F 1026.3 in Calm   4.8 mph 83 % 0.0 in
14:57 7.4 °F 4.5 °F 1026.3 in Calm   4.8 mph 82 % 0.0 in
15:02 7.5 °F 4.5 °F 1026.3 in Calm   3.2 mph 81 % 0.0 in
15:07 7.6 °F 4.5 °F 1026.3 in NW 1.6 mph 4.8 mph 81 % 0.0 in
15:12 7.6 °F 4.4 °F 1026.3 in Calm   6.4 mph 80 % 0.0 in
15:17 7.6 °F 4.4 °F 1026.3 in Calm   6.4 mph 80 % 0.0 in
15:22 7.6 °F 4.2 °F 1026.3 in North 1.6 mph 6.4 mph 79 % 0.0 in
15:27 7.6 °F 4.2 °F 1026.6 in North 1.6 mph 4.8 mph 79 % 0.0 in
15:32 7.7 °F 4.5 °F 1026.6 in NNW 1.6 mph 4.8 mph 80 % 0.0 in
15:37 7.7 °F 4.3 °F 1026.6 in Calm   4.8 mph 79 % 0.0 in
15:42 7.8 °F 4.4 °F 1026.6 in West 1.6 mph 4.8 mph 79 % 0.0 in
15:47 7.8 °F 4.2 °F 1026.6 in Calm   6.4 mph 78 % 0.0 in
15:52 7.8 °F 4.4 °F 1026.6 in Calm   8.0 mph 79 % 0.0 in
15:57 7.8 °F 4.6 °F 1026.6 in Calm   8.0 mph 80 % 0.0 in
16:02 7.9 °F 4.7 °F 1026.6 in WNW 1.6 mph 3.2 mph 80 % 0.0 in
16:12 7.8 °F 4.7 °F 1026.6 in NW 4.8 mph 4.8 mph 81 % 0.0 in
16:17 7.8 °F 4.7 °F 1026.6 in NW 3.2 mph 4.8 mph 81 % 0.0 in
16:22 7.7 °F 4.6 °F 1026.6 in Calm   6.4 mph 81 % 0.0 in
16:27 7.7 °F 4.6 °F 1026.6 in NW 3.2 mph 6.4 mph 81 % 0.0 in
16:32 7.7 °F 4.6 °F 1027.0 in NNW 1.6 mph 6.4 mph 81 % 0.0 in
16:37 7.7 °F 4.6 °F 1027.0 in NW 1.6 mph 6.4 mph 81 % 0.0 in
16:42 7.7 °F 4.6 °F 1027.0 in Calm   4.8 mph 81 % 0.0 in
16:47 7.7 °F 4.6 °F 1027.0 in Calm   4.8 mph 81 % 0.0 in
16:52 7.6 °F 4.7 °F 1027.0 in Calm   3.2 mph 82 % 0.0 in
16:57 7.6 °F 4.7 °F 1027.0 in Calm   1.6 mph 82 % 0.0 in
17:02 7.6 °F 4.7 °F 1027.0 in Calm   1.6 mph 82 % 0.0 in
17:07 7.6 °F 4.7 °F 1027.0 in Calm   1.6 mph 82 % 0.0 in
17:12 7.6 °F 4.7 °F 1027.3 in Calm     82 % 0.0 in
17:17 7.5 °F 4.6 °F 1027.3 in Calm     82 % 0.0 in
17:22 7.5 °F 4.6 °F 1027.3 in Calm     82 % 0.0 in
17:27 7.4 °F 4.5 °F 1027.3 in Calm     82 % 0.0 in
17:32 7.4 °F 4.7 °F 1027.3 in Calm     83 % 0.0 in
17:37 7.4 °F 4.7 °F 1027.3 in Calm     83 % 0.0 in
17:42 7.3 °F 4.6 °F 1027.3 in Calm     83 % 0.0 in
17:47 7.3 °F 4.8 °F 1027.3 in Calm     84 % 0.0 in
17:52 7.3 °F 4.8 °F 1027.3 in Calm     84 % 0.0 in
17:57 7.2 °F 4.7 °F 1027.3 in Calm     84 % 0.0 in
18:02 7.2 °F 4.8 °F 1027.3 in Calm     85 % 0.0 in
18:12 7.1 °F 4.9 °F 1027.3 in Calm   3.2 mph 86 % 0.0 in
18:17 6.9 °F 4.9 °F 1027.3 in Calm   3.2 mph 87 % 0.0 in
18:22 6.9 °F 4.9 °F 1027.3 in Calm   1.6 mph 87 % 0.0 in
18:32 6.7 °F 4.9 °F 1027.3 in Calm   3.2 mph 88 % 0.0 in
18:42 6.7 °F 5.0 °F 1027.7 in SW 1.6 mph 3.2 mph 89 % 0.0 in
18:47 6.7 °F 5.0 °F 1027.7 in SW 1.6 mph 3.2 mph 89 % 0.0 in
18:52 6.7 °F 5.2 °F 1027.7 in SW 3.2 mph 3.2 mph 90 % 0.0 in
19:02 6.7 °F 5.2 °F 1027.7 in SSW 1.6 mph 6.4 mph 90 % 0.0 in
19:07 6.7 °F 5.2 °F 1028.0 in South 1.6 mph 6.4 mph 90 % 0.0 in
19:12 6.7 °F 5.3 °F 1028.0 in SSE 1.6 mph 4.8 mph 91 % 0.0 in
19:17 6.6 °F 5.2 °F 1028.0 in Calm   3.2 mph 91 % 0.0 in
19:22 6.6 °F 5.2 °F 1028.0 in Calm   3.2 mph 91 % 0.0 in
19:27 6.6 °F 5.2 °F 1028.0 in Calm   1.6 mph 91 % 0.0 in
19:32 6.5 °F 5.1 °F 1028.0 in SE 1.6 mph 1.6 mph 91 % 0.0 in
19:37 6.5 °F 5.1 °F 1027.7 in SE 1.6 mph 1.6 mph 91 % 0.0 in
19:42 6.4 °F 5.0 °F 1027.7 in Calm   3.2 mph 91 % 0.0 in
19:47 6.4 °F 5.0 °F 1027.7 in SSE 1.6 mph 4.8 mph 91 % 0.0 in
19:52 6.3 °F 5.1 °F 1028.0 in WSW 1.6 mph 8.0 mph 92 % 0.0 in
19:57 6.3 °F 5.1 °F 1028.0 in Calm   8.0 mph 92 % 0.0 in
20:02 6.3 °F 5.1 °F 1028.0 in SW 1.6 mph 8.0 mph 92 % 0.0 in
20:07 6.3 °F 5.1 °F 1028.0 in Calm   6.4 mph 92 % 0.0 in
20:12 6.2 °F 5.0 °F 1028.3 in Calm   3.2 mph 92 % 0.0 in
20:17 6.2 °F 5.0 °F 1028.3 in Calm   3.2 mph 92 % 0.0 in
20:22 6.2 °F 5.0 °F 1028.0 in SW 1.6 mph 1.6 mph 92 % 0.0 in
20:32 6.1 °F 4.9 °F 1028.0 in SSW 3.2 mph 3.2 mph 92 % 0.0 in
20:37 6.1 °F 4.9 °F 1028.0 in SW 3.2 mph 3.2 mph 92 % 0.0 in
20:42 6.1 °F 4.9 °F 1028.0 in SSW 1.6 mph 4.8 mph 92 % 0.0 in
20:47 5.9 °F 4.7 °F 1028.3 in Calm   4.8 mph 92 % 0.0 in
20:52 5.9 °F 4.9 °F 1028.3 in SW 1.6 mph 3.2 mph 93 % 0.0 in
20:57 5.8 °F 4.8 °F 1028.3 in Calm   3.2 mph 93 % 0.0 in
21:02 5.8 °F 4.8 °F 1028.3 in Calm   3.2 mph 93 % 0.0 in
21:12 5.7 °F 4.7 °F 1028.3 in WSW 1.6 mph 1.6 mph 93 % 0.0 in
21:17 5.7 °F 4.7 °F 1028.0 in SW 1.6 mph 3.2 mph 93 % 0.0 in
21:22 5.7 °F 4.7 °F 1028.0 in WSW 1.6 mph 6.4 mph 93 % 0.0 in
21:32 5.8 °F 4.8 °F 1028.3 in WSW 3.2 mph 6.4 mph 93 % 0.0 in
21:37 5.9 °F 4.7 °F 1028.3 in West 3.2 mph 6.4 mph 92 % 0.0 in
21:42 5.9 °F 4.7 °F 1028.3 in WSW 6.4 mph 6.4 mph 92 % 0.0 in
21:47 6.0 °F 4.8 °F 1028.3 in WSW 3.2 mph 9.7 mph 92 % 0.0 in
21:52 6.1 °F 4.9 °F 1028.3 in Calm   9.7 mph 92 % 0.0 in
21:57 6.1 °F 4.9 °F 1028.3 in West 1.6 mph 9.7 mph 92 % 0.0 in
22:02 6.1 °F 4.9 °F 1028.3 in West 1.6 mph 8.0 mph 92 % 0.0 in
22:07 6.1 °F 4.9 °F 1028.3 in Calm   6.4 mph 92 % 0.0 in
22:12 6.1 °F 4.9 °F 1028.7 in West 1.6 mph 6.4 mph 92 % 0.0 in
22:17 6.1 °F 4.9 °F 1028.7 in Calm   3.2 mph 92 % 0.0 in
22:22 6.1 °F 4.9 °F 1028.3 in Calm   3.2 mph 92 % 0.0 in
22:27 6.1 °F 4.9 °F 1028.7 in Calm   1.6 mph 92 % 0.0 in
22:32 6.1 °F 4.9 °F 1028.3 in Calm     92 % 0.0 in
22:37 6.1 °F 4.9 °F 1028.3 in Calm   1.6 mph 92 % 0.0 in
22:42 6.1 °F 4.9 °F 1028.3 in Calm   1.6 mph 92 % 0.0 in
22:47 6.1 °F 4.9 °F 1028.7 in Calm   1.6 mph 92 % 0.0 in
22:52 6.0 °F 4.8 °F 1028.3 in Calm     92 % 0.0 in
22:57 6.0 °F 4.8 °F 1028.3 in Calm     92 % 0.0 in
23:07 5.9 °F 4.7 °F 1028.0 in SSW 3.2 mph 3.2 mph 92 % 0.0 in
23:12 5.8 °F 4.8 °F 1027.7 in SSW 4.8 mph 6.4 mph 93 % 0.0 in
23:22 5.6 °F 4.6 °F 1027.7 in SW 3.2 mph 6.4 mph 93 % 0.0 in
23:27 5.4 °F 4.4 °F 1028.0 in SW 3.2 mph 6.4 mph 93 % 0.0 in
23:32 5.3 °F 4.3 °F 1028.0 in SW 1.6 mph 6.4 mph 93 % 0.0 in
23:37 5.2 °F 4.2 °F 1028.0 in SSW 1.6 mph 4.8 mph 93 % 0.0 in
23:42 5.1 °F 4.2 °F 1028.0 in SW 3.2 mph 4.8 mph 94 % 0.0 in
23:47 5.0 °F 4.1 °F 1028.0 in SW 1.6 mph 4.8 mph 94 % 0.0 in
23:52 5.1 °F 4.2 °F 1028.0 in WSW 1.6 mph 4.8 mph 94 % 0.0 in
23:57 5.2 °F 4.3 °F 1028.0 in Calm   4.8 mph 94 % 0.0 in
Meteo18
Compliments of Weather Underground - 4 mb

Script developed by  Jim McMurry - jmcmurry@mwt.net Adapted for the template by  Wim van der Kuil - Leuven-Template.eu

You find our weather info also at:

European Weather Network

Weather Underground

Equipment we use:

Weather-station
Davis Vue

Weather-program
Meteobridge

Weather-server
Raspberry PI 2 B+

Provider
1 and 1

Davis Vue

Meteobridge

Raspberry PI 2 B+

1 and 1